sensor_id;sensor_type;location;lat;lon;timestamp;temperature;humidity
8824;DHT22;4448;50.904;4.694;2022-10-16T00:01:30;14.00;99.90
8824;DHT22;4448;50.904;4.694;2022-10-16T00:03:57;14.00;99.90
8824;DHT22;4448;50.904;4.694;2022-10-16T00:06:24;14.00;99.90
8824;DHT22;4448;50.904;4.694;2022-10-16T00:08:50;14.00;99.90
8824;DHT22;4448;50.904;4.694;2022-10-16T00:11:20;14.00;99.90
8824;DHT22;4448;50.904;4.694;2022-10-16T00:13:47;14.00;99.90
8824;DHT22;4448;50.904;4.694;2022-10-16T00:16:14;13.90;99.90
8824;DHT22;4448;50.904;4.694;2022-10-16T00:18:40;14.00;99.90
8824;DHT22;4448;50.904;4.694;2022-10-16T00:21:12;14.00;99.90
8824;DHT22;4448;50.904;4.694;2022-10-16T00:23:38;14.00;99.90
8824;DHT22;4448;50.904;4.694;2022-10-16T00:26:10;13.90;99.90
8824;DHT22;4448;50.904;4.694;2022-10-16T00:28:36;13.90;99.90
8824;DHT22;4448;50.904;4.694;2022-10-16T00:31:06;13.90;99.90
8824;DHT22;4448;50.904;4.694;2022-10-16T00:33:33;13.90;99.90
8824;DHT22;4448;50.904;4.694;2022-10-16T00:36:00;13.80;99.90
8824;DHT22;4448;50.904;4.694;2022-10-16T00:38:26;13.80;99.90
8824;DHT22;4448;50.904;4.694;2022-10-16T00:40:51;13.80;99.90
8824;DHT22;4448;50.904;4.694;2022-10-16T00:45:58;13.80;99.90
8824;DHT22;4448;50.904;4.694;2022-10-16T00:50:50;13.60;99.90
8824;DHT22;4448;50.904;4.694;2022-10-16T00:53:17;13.60;99.90
8824;DHT22;4448;50.904;4.694;2022-10-16T00:55:43;13.60;99.90
8824;DHT22;4448;50.904;4.694;2022-10-16T00:58:09;13.60;99.90
8824;DHT22;4448;50.904;4.694;2022-10-16T01:00:35;13.60;99.90
8824;DHT22;4448;50.904;4.694;2022-10-16T01:03:02;13.60;99.90
8824;DHT22;4448;50.904;4.694;2022-10-16T01:08:16;13.60;99.90
8824;DHT22;4448;50.904;4.694;2022-10-16T01:10:59;13.60;99.90
8824;DHT22;4448;50.904;4.694;2022-10-16T01:13:35;13.50;99.90
8824;DHT22;4448;50.904;4.694;2022-10-16T01:16:17;13.50;99.90
8824;DHT22;4448;50.904;4.694;2022-10-16T01:19:16;13.50;99.90
8824;DHT22;4448;50.904;4.694;2022-10-16T01:21:48;13.50;99.90
8824;DHT22;4448;50.904;4.694;2022-10-16T01:32:15;13.50;99.90
8824;DHT22;4448;50.904;4.694;2022-10-16T01:34:51;13.50;99.90
8824;DHT22;4448;50.904;4.694;2022-10-16T01:37:36;13.50;99.90
8824;DHT22;4448;50.904;4.694;2022-10-16T01:40:07;13.60;99.90
8824;DHT22;4448;50.904;4.694;2022-10-16T01:42:44;13.50;99.90
8824;DHT22;4448;50.904;4.694;2022-10-16T01:47:40;13.30;99.90
8824;DHT22;4448;50.904;4.694;2022-10-16T01:50:10;13.40;99.90
8824;DHT22;4448;50.904;4.694;2022-10-16T01:52:39;13.50;99.90
8824;DHT22;4448;50.904;4.694;2022-10-16T01:55:07;13.40;99.90
8824;DHT22;4448;50.904;4.694;2022-10-16T01:57:37;13.50;99.90
8824;DHT22;4448;50.904;4.694;2022-10-16T02:00:08;13.40;99.90
8824;DHT22;4448;50.904;4.694;2022-10-16T02:02:35;13.40;99.90
8824;DHT22;4448;50.904;4.694;2022-10-16T02:07:52;13.40;99.90
8824;DHT22;4448;50.904;4.694;2022-10-16T02:10:18;13.40;99.90
8824;DHT22;4448;50.904;4.694;2022-10-16T02:12:53;13.40;99.90
8824;DHT22;4448;50.904;4.694;2022-10-16T02:15:20;13.40;99.90
8824;DHT22;4448;50.904;4.694;2022-10-16T02:17:46;13.40;99.90
8824;DHT22;4448;50.904;4.694;2022-10-16T02:20:13;13.40;99.90
8824;DHT22;4448;50.904;4.694;2022-10-16T02:22:43;13.40;99.90
8824;DHT22;4448;50.904;4.694;2022-10-16T02:28:14;13.40;99.90
8824;DHT22;4448;50.904;4.694;2022-10-16T02:30:50;13.40;99.90
8824;DHT22;4448;50.904;4.694;2022-10-16T02:33:18;13.40;99.90
8824;DHT22;4448;50.904;4.694;2022-10-16T02:35:46;13.40;99.90
8824;DHT22;4448;50.904;4.694;2022-10-16T02:38:14;13.30;99.90
8824;DHT22;4448;50.904;4.694;2022-10-16T02:40:41;13.30;99.90
8824;DHT22;4448;50.904;4.694;2022-10-16T02:43:10;13.40;99.90
8824;DHT22;4448;50.904;4.694;2022-10-16T02:45:36;13.30;99.90
8824;DHT22;4448;50.904;4.694;2022-10-16T02:48:02;13.30;99.90
8824;DHT22;4448;50.904;4.694;2022-10-16T02:50:27;13.30;99.90
8824;DHT22;4448;50.904;4.694;2022-10-16T02:52:53;13.30;99.90
8824;DHT22;4448;50.904;4.694;2022-10-16T02:55:19;13.30;99.90
8824;DHT22;4448;50.904;4.694;2022-10-16T02:57:45;13.20;99.90
8824;DHT22;4448;50.904;4.694;2022-10-16T03:00:14;13.20;99.90
8824;DHT22;4448;50.904;4.694;2022-10-16T03:02:40;13.20;99.90
8824;DHT22;4448;50.904;4.694;2022-10-16T03:05:06;13.20;99.90
8824;DHT22;4448;50.904;4.694;2022-10-16T03:07:32;13.20;99.90
8824;DHT22;4448;50.904;4.694;2022-10-16T03:09:58;13.20;99.90
8824;DHT22;4448;50.904;4.694;2022-10-16T03:12:26;13.20;99.90
8824;DHT22;4448;50.904;4.694;2022-10-16T03:14:52;13.20;99.90
8824;DHT22;4448;50.904;4.694;2022-10-16T03:17:18;13.20;99.90
8824;DHT22;4448;50.904;4.694;2022-10-16T03:19:44;13.20;99.90
8824;DHT22;4448;50.904;4.694;2022-10-16T03:22:10;13.20;99.90
8824;DHT22;4448;50.904;4.694;2022-10-16T03:24:36;13.30;99.90
8824;DHT22;4448;50.904;4.694;2022-10-16T03:27:01;13.30;99.90
8824;DHT22;4448;50.904;4.694;2022-10-16T03:29:27;13.30;99.90
8824;DHT22;4448;50.904;4.694;2022-10-16T03:34:20;13.20;99.90
8824;DHT22;4448;50.904;4.694;2022-10-16T03:36:46;13.20;99.90
8824;DHT22;4448;50.904;4.694;2022-10-16T03:39:12;13.20;99.90
8824;DHT22;4448;50.904;4.694;2022-10-16T03:41:37;13.20;99.90
8824;DHT22;4448;50.904;4.694;2022-10-16T03:44:03;13.20;99.90
8824;DHT22;4448;50.904;4.694;2022-10-16T03:46:29;13.20;99.90
8824;DHT22;4448;50.904;4.694;2022-10-16T03:48:55;13.30;99.90
8824;DHT22;4448;50.904;4.694;2022-10-16T03:51:20;13.20;99.90
8824;DHT22;4448;50.904;4.694;2022-10-16T03:53:46;13.20;99.90
8824;DHT22;4448;50.904;4.694;2022-10-16T03:56:12;13.20;99.90
8824;DHT22;4448;50.904;4.694;2022-10-16T03:58:38;13.20;99.90
8824;DHT22;4448;50.904;4.694;2022-10-16T04:01:03;13.30;99.90
8824;DHT22;4448;50.904;4.694;2022-10-16T04:03:30;13.30;99.90
8824;DHT22;4448;50.904;4.694;2022-10-16T04:05:56;13.30;99.90
8824;DHT22;4448;50.904;4.694;2022-10-16T04:08:22;13.20;99.90
8824;DHT22;4448;50.904;4.694;2022-10-16T04:10:48;13.20;99.90
8824;DHT22;4448;50.904;4.694;2022-10-16T04:13:14;13.20;99.90
8824;DHT22;4448;50.904;4.694;2022-10-16T04:15:39;13.30;99.90
8824;DHT22;4448;50.904;4.694;2022-10-16T04:18:05;13.30;99.90
8824;DHT22;4448;50.904;4.694;2022-10-16T04:20:31;13.20;99.90
8824;DHT22;4448;50.904;4.694;2022-10-16T04:22:57;13.30;99.90
8824;DHT22;4448;50.904;4.694;2022-10-16T04:25:24;13.30;99.90
8824;DHT22;4448;50.904;4.694;2022-10-16T04:27:49;13.30;99.90
8824;DHT22;4448;50.904;4.694;2022-10-16T04:30:15;13.40;99.90
8824;DHT22;4448;50.904;4.694;2022-10-16T04:32:41;13.30;99.90
8824;DHT22;4448;50.904;4.694;2022-10-16T04:35:07;13.40;99.90
8824;DHT22;4448;50.904;4.694;2022-10-16T04:37:33;13.30;99.90
8824;DHT22;4448;50.904;4.694;2022-10-16T04:39:58;13.30;99.90
8824;DHT22;4448;50.904;4.694;2022-10-16T04:42:24;13.30;99.90
8824;DHT22;4448;50.904;4.694;2022-10-16T04:44:51;13.30;99.90
8824;DHT22;4448;50.904;4.694;2022-10-16T04:47:17;13.30;99.90
8824;DHT22;4448;50.904;4.694;2022-10-16T04:49:42;13.30;99.90
8824;DHT22;4448;50.904;4.694;2022-10-16T04:52:08;13.20;99.90
8824;DHT22;4448;50.904;4.694;2022-10-16T04:54:35;13.20;99.90
8824;DHT22;4448;50.904;4.694;2022-10-16T04:57:00;13.20;99.90
8824;DHT22;4448;50.904;4.694;2022-10-16T04:59:26;13.20;99.90
8824;DHT22;4448;50.904;4.694;2022-10-16T05:01:53;13.30;99.90
8824;DHT22;4448;50.904;4.694;2022-10-16T05:04:18;13.20;99.90
8824;DHT22;4448;50.904;4.694;2022-10-16T05:06:44;13.20;99.90
8824;DHT22;4448;50.904;4.694;2022-10-16T05:09:12;13.10;99.90
8824;DHT22;4448;50.904;4.694;2022-10-16T05:11:37;13.10;99.90
8824;DHT22;4448;50.904;4.694;2022-10-16T05:14:03;13.10;99.90
8824;DHT22;4448;50.904;4.694;2022-10-16T05:16:29;13.10;99.90
8824;DHT22;4448;50.904;4.694;2022-10-16T05:18:56;13.10;99.90
8824;DHT22;4448;50.904;4.694;2022-10-16T05:23:50;13.10;99.90
8824;DHT22;4448;50.904;4.694;2022-10-16T05:26:16;13.10;99.90
8824;DHT22;4448;50.904;4.694;2022-10-16T05:28:44;13.10;99.90
8824;DHT22;4448;50.904;4.694;2022-10-16T05:31:12;13.10;99.90
8824;DHT22;4448;50.904;4.694;2022-10-16T05:33:39;13.10;99.90
8824;DHT22;4448;50.904;4.694;2022-10-16T05:36:07;13.10;99.90
8824;DHT22;4448;50.904;4.694;2022-10-16T05:38:34;13.10;99.90
8824;DHT22;4448;50.904;4.694;2022-10-16T05:40:59;13.10;99.90
8824;DHT22;4448;50.904;4.694;2022-10-16T05:43:26;13.10;99.90
8824;DHT22;4448;50.904;4.694;2022-10-16T05:45:56;13.00;99.90
8824;DHT22;4448;50.904;4.694;2022-10-16T05:48:23;13.00;99.90
8824;DHT22;4448;50.904;4.694;2022-10-16T05:50:55;13.00;99.90
8824;DHT22;4448;50.904;4.694;2022-10-16T05:53:21;13.00;99.90
8824;DHT22;4448;50.904;4.694;2022-10-16T05:55:54;12.90;99.90
8824;DHT22;4448;50.904;4.694;2022-10-16T05:58:21;12.90;99.90
8824;DHT22;4448;50.904;4.694;2022-10-16T06:00:57;12.90;99.90
8824;DHT22;4448;50.904;4.694;2022-10-16T06:03:23;12.90;99.90
8824;DHT22;4448;50.904;4.694;2022-10-16T06:08:15;12.90;99.90
8824;DHT22;4448;50.904;4.694;2022-10-16T06:10:40;12.90;99.90
8824;DHT22;4448;50.904;4.694;2022-10-16T06:13:06;13.30;99.90
8824;DHT22;4448;50.904;4.694;2022-10-16T06:15:32;13.00;99.90
8824;DHT22;4448;50.904;4.694;2022-10-16T06:17:57;13.00;99.90
8824;DHT22;4448;50.904;4.694;2022-10-16T06:20:23;12.90;99.90
8824;DHT22;4448;50.904;4.694;2022-10-16T06:22:49;13.00;99.90
8824;DHT22;4448;50.904;4.694;2022-10-16T06:25:14;13.00;99.90
8824;DHT22;4448;50.904;4.694;2022-10-16T06:27:40;13.00;99.90
8824;DHT22;4448;50.904;4.694;2022-10-16T06:30:07;13.00;99.90
8824;DHT22;4448;50.904;4.694;2022-10-16T06:32:32;13.00;99.90
8824;DHT22;4448;50.904;4.694;2022-10-16T06:34:58;13.00;99.90
8824;DHT22;4448;50.904;4.694;2022-10-16T06:37:24;13.00;99.90
8824;DHT22;4448;50.904;4.694;2022-10-16T06:39:50;13.00;99.90
8824;DHT22;4448;50.904;4.694;2022-10-16T06:42:18;13.00;99.90
8824;DHT22;4448;50.904;4.694;2022-10-16T06:44:44;13.00;99.90
8824;DHT22;4448;50.904;4.694;2022-10-16T06:47:10;13.10;99.90
8824;DHT22;4448;50.904;4.694;2022-10-16T06:49:35;13.10;99.90
8824;DHT22;4448;50.904;4.694;2022-10-16T06:52:01;13.30;99.90
8824;DHT22;4448;50.904;4.694;2022-10-16T06:54:28;14.20;99.90
8824;DHT22;4448;50.904;4.694;2022-10-16T06:56:54;15.50;99.90
8824;DHT22;4448;50.904;4.694;2022-10-16T06:59:23;16.10;99.90
8824;DHT22;4448;50.904;4.694;2022-10-16T07:01:49;16.60;99.90
8824;DHT22;4448;50.904;4.694;2022-10-16T07:04:14;16.50;99.90
8824;DHT22;4448;50.904;4.694;2022-10-16T07:06:40;16.60;99.90
8824;DHT22;4448;50.904;4.694;2022-10-16T07:09:10;16.70;99.90
8824;DHT22;4448;50.904;4.694;2022-10-16T07:11:38;17.00;99.90
8824;DHT22;4448;50.904;4.694;2022-10-16T07:14:04;17.30;99.90
8824;DHT22;4448;50.904;4.694;2022-10-16T07:16:32;17.60;99.90
8824;DHT22;4448;50.904;4.694;2022-10-16T07:18:59;17.50;99.90
8824;DHT22;4448;50.904;4.694;2022-10-16T07:21:31;18.00;99.90
8824;DHT22;4448;50.904;4.694;2022-10-16T07:24:00;17.90;99.90
8824;DHT22;4448;50.904;4.694;2022-10-16T07:26:27;17.30;99.90
8824;DHT22;4448;50.904;4.694;2022-10-16T07:28:53;17.40;99.90
8824;DHT22;4448;50.904;4.694;2022-10-16T07:31:23;17.10;99.90
8824;DHT22;4448;50.904;4.694;2022-10-16T07:33:50;17.70;99.90
8824;DHT22;4448;50.904;4.694;2022-10-16T07:36:18;18.10;99.90
8824;DHT22;4448;50.904;4.694;2022-10-16T07:38:44;17.10;99.90
8824;DHT22;4448;50.904;4.694;2022-10-16T07:41:12;16.40;99.90
8824;DHT22;4448;50.904;4.694;2022-10-16T07:43:38;16.40;99.90
8824;DHT22;4448;50.904;4.694;2022-10-16T07:46:04;16.90;99.90
8824;DHT22;4448;50.904;4.694;2022-10-16T07:48:31;17.40;99.90
8824;DHT22;4448;50.904;4.694;2022-10-16T07:51:02;17.50;99.90
8824;DHT22;4448;50.904;4.694;2022-10-16T07:53:28;17.50;99.90
8824;DHT22;4448;50.904;4.694;2022-10-16T07:55:59;17.70;99.90
8824;DHT22;4448;50.904;4.694;2022-10-16T07:58:25;17.50;99.90
8824;DHT22;4448;50.904;4.694;2022-10-16T08:00:50;17.80;99.90
8824;DHT22;4448;50.904;4.694;2022-10-16T08:03:16;17.90;99.90
8824;DHT22;4448;50.904;4.694;2022-10-16T08:05:41;18.10;99.90
8824;DHT22;4448;50.904;4.694;2022-10-16T08:08:13;18.10;99.90
8824;DHT22;4448;50.904;4.694;2022-10-16T08:10:38;18.20;99.90
8824;DHT22;4448;50.904;4.694;2022-10-16T08:13:04;18.40;99.90
8824;DHT22;4448;50.904;4.694;2022-10-16T08:15:30;18.50;99.90
8824;DHT22;4448;50.904;4.694;2022-10-16T08:18:01;18.60;99.90
8824;DHT22;4448;50.904;4.694;2022-10-16T08:20:28;18.70;99.90
8824;DHT22;4448;50.904;4.694;2022-10-16T08:22:55;18.70;99.90
8824;DHT22;4448;50.904;4.694;2022-10-16T08:25:22;18.80;99.90
8824;DHT22;4448;50.904;4.694;2022-10-16T08:27:48;19.00;99.90
8824;DHT22;4448;50.904;4.694;2022-10-16T08:30:15;19.10;99.90
8824;DHT22;4448;50.904;4.694;2022-10-16T08:32:41;19.20;99.90
8824;DHT22;4448;50.904;4.694;2022-10-16T08:35:08;19.20;99.90
8824;DHT22;4448;50.904;4.694;2022-10-16T08:37:34;19.20;99.90
8824;DHT22;4448;50.904;4.694;2022-10-16T08:40:00;19.30;99.90
8824;DHT22;4448;50.904;4.694;2022-10-16T08:45:03;19.40;99.90
8824;DHT22;4448;50.904;4.694;2022-10-16T08:48:08;19.30;99.90
8824;DHT22;4448;50.904;4.694;2022-10-16T08:50:28;19.30;99.90
8824;DHT22;4448;50.904;4.694;2022-10-16T08:52:55;19.40;99.90
8824;DHT22;4448;50.904;4.694;2022-10-16T08:55:45;19.70;99.90
8824;DHT22;4448;50.904;4.694;2022-10-16T08:58:20;19.80;99.90
8824;DHT22;4448;50.904;4.694;2022-10-16T09:00:48;19.40;99.90
8824;DHT22;4448;50.904;4.694;2022-10-16T09:14:32;19.70;99.90
8824;DHT22;4448;50.904;4.694;2022-10-16T09:20:23;20.20;99.90
8824;DHT22;4448;50.904;4.694;2022-10-16T09:23:45;20.10;99.90
8824;DHT22;4448;50.904;4.694;2022-10-16T09:25:48;20.30;99.90
8824;DHT22;4448;50.904;4.694;2022-10-16T09:28:15;20.70;99.90
8824;DHT22;4448;50.904;4.694;2022-10-16T09:30:41;20.80;99.90
8824;DHT22;4448;50.904;4.694;2022-10-16T09:33:10;20.90;99.90
8824;DHT22;4448;50.904;4.694;2022-10-16T09:35:42;21.10;99.90
8824;DHT22;4448;50.904;4.694;2022-10-16T09:38:08;21.30;99.90
8824;DHT22;4448;50.904;4.694;2022-10-16T09:40:37;21.00;99.90
8824;DHT22;4448;50.904;4.694;2022-10-16T09:46:09;21.50;99.90
8824;DHT22;4448;50.904;4.694;2022-10-16T09:48:49;21.90;99.90
8824;DHT22;4448;50.904;4.694;2022-10-16T09:51:28;22.00;99.90
8824;DHT22;4448;50.904;4.694;2022-10-16T09:56:34;21.60;99.90
8824;DHT22;4448;50.904;4.694;2022-10-16T09:59:15;21.50;99.90
8824;DHT22;4448;50.904;4.694;2022-10-16T10:01:47;21.70;99.90
8824;DHT22;4448;50.904;4.694;2022-10-16T10:04:14;22.30;99.90
8824;DHT22;4448;50.904;4.694;2022-10-16T10:09:29;22.80;99.90
8824;DHT22;4448;50.904;4.694;2022-10-16T10:11:58;22.30;99.90
8824;DHT22;4448;50.904;4.694;2022-10-16T10:14:38;21.90;99.90
8824;DHT22;4448;50.904;4.694;2022-10-16T10:38:40;23.40;99.90
8824;DHT22;4448;50.904;4.694;2022-10-16T10:41:22;23.60;99.90
8824;DHT22;4448;50.904;4.694;2022-10-16T10:44:17;23.10;99.90
8824;DHT22;4448;50.904;4.694;2022-10-16T10:46:51;23.00;99.90
8824;DHT22;4448;50.904;4.694;2022-10-16T10:49:54;23.30;99.90
8824;DHT22;4448;50.904;4.694;2022-10-16T10:52:37;23.00;99.90
8824;DHT22;4448;50.904;4.694;2022-10-16T11:06:10;22.60;99.90
8824;DHT22;4448;50.904;4.694;2022-10-16T11:09:07;23.00;99.90
8824;DHT22;4448;50.904;4.694;2022-10-16T11:12:11;22.70;99.90
8824;DHT22;4448;50.904;4.694;2022-10-16T11:14:50;21.80;99.90
8824;DHT22;4448;50.904;4.694;2022-10-16T11:17:29;21.80;99.90
8824;DHT22;4448;50.904;4.694;2022-10-16T11:22:34;22.30;99.90
8824;DHT22;4448;50.904;4.694;2022-10-16T11:30:27;22.00;99.90
8824;DHT22;4448;50.904;4.694;2022-10-16T11:40:52;23.30;99.90
8824;DHT22;4448;50.904;4.694;2022-10-16T11:43:32;23.50;99.90
8824;DHT22;4448;50.904;4.694;2022-10-16T11:46:15;23.00;99.90
8824;DHT22;4448;50.904;4.694;2022-10-16T11:48:55;22.40;99.90
8824;DHT22;4448;50.904;4.694;2022-10-16T11:51:29;22.20;99.90
8824;DHT22;4448;50.904;4.694;2022-10-16T11:54:45;22.40;99.90
8824;DHT22;4448;50.904;4.694;2022-10-16T11:57:29;22.40;99.90
8824;DHT22;4448;50.904;4.694;2022-10-16T12:00:23;22.10;99.90
8824;DHT22;4448;50.904;4.694;2022-10-16T12:03:14;21.80;99.90
8824;DHT22;4448;50.904;4.694;2022-10-16T12:08:49;21.20;99.90
8824;DHT22;4448;50.904;4.694;2022-10-16T12:11:33;21.10;99.90
8824;DHT22;4448;50.904;4.694;2022-10-16T12:17:04;21.00;99.90
8824;DHT22;4448;50.904;4.694;2022-10-16T12:20:01;20.90;99.90
8824;DHT22;4448;50.904;4.694;2022-10-16T12:22:31;20.70;99.90
8824;DHT22;4448;50.904;4.694;2022-10-16T12:25:01;20.60;99.90
8824;DHT22;4448;50.904;4.694;2022-10-16T12:27:31;20.50;99.90
8824;DHT22;4448;50.904;4.694;2022-10-16T12:30:04;20.60;99.90
8824;DHT22;4448;50.904;4.694;2022-10-16T12:32:37;20.60;99.90
8824;DHT22;4448;50.904;4.694;2022-10-16T12:35:06;20.40;99.90
8824;DHT22;4448;50.904;4.694;2022-10-16T12:37:44;20.30;99.90
8824;DHT22;4448;50.904;4.694;2022-10-16T12:40:30;20.30;99.90
8824;DHT22;4448;50.904;4.694;2022-10-16T12:42:57;20.40;99.90
8824;DHT22;4448;50.904;4.694;2022-10-16T12:45:32;20.40;99.90
8824;DHT22;4448;50.904;4.694;2022-10-16T12:48:00;20.60;99.90
8824;DHT22;4448;50.904;4.694;2022-10-16T12:50:35;20.80;99.90
8824;DHT22;4448;50.904;4.694;2022-10-16T12:53:04;20.70;99.90
8824;DHT22;4448;50.904;4.694;2022-10-16T12:55:50;20.70;99.90
8824;DHT22;4448;50.904;4.694;2022-10-16T13:01:13;20.40;99.90
8824;DHT22;4448;50.904;4.694;2022-10-16T13:04:13;20.30;99.90
8824;DHT22;4448;50.904;4.694;2022-10-16T13:09:30;20.50;99.90
8824;DHT22;4448;50.904;4.694;2022-10-16T13:21:14;20.10;99.90
8824;DHT22;4448;50.904;4.694;2022-10-16T13:23:47;20.30;99.90
8824;DHT22;4448;50.904;4.694;2022-10-16T13:26:49;20.50;99.90
8824;DHT22;4448;50.904;4.694;2022-10-16T13:29:18;20.80;99.90
8824;DHT22;4448;50.904;4.694;2022-10-16T13:31:45;20.80;99.90
8824;DHT22;4448;50.904;4.694;2022-10-16T13:34:20;20.90;99.90
8824;DHT22;4448;50.904;4.694;2022-10-16T13:36:49;20.80;99.90
8824;DHT22;4448;50.904;4.694;2022-10-16T13:39:25;20.80;99.90
8824;DHT22;4448;50.904;4.694;2022-10-16T13:42:06;20.80;99.90
8824;DHT22;4448;50.904;4.694;2022-10-16T13:44:43;20.80;99.90
8824;DHT22;4448;50.904;4.694;2022-10-16T13:47:17;20.90;99.90
8824;DHT22;4448;50.904;4.694;2022-10-16T13:49:43;21.20;99.90
8824;DHT22;4448;50.904;4.694;2022-10-16T13:52:18;21.70;99.90
8824;DHT22;4448;50.904;4.694;2022-10-16T13:54:44;21.80;99.90
8824;DHT22;4448;50.904;4.694;2022-10-16T13:57:14;21.70;99.90
8824;DHT22;4448;50.904;4.694;2022-10-16T13:59:40;21.30;99.90
8824;DHT22;4448;50.904;4.694;2022-10-16T14:02:30;20.70;99.90
8824;DHT22;4448;50.904;4.694;2022-10-16T14:04:57;20.40;99.90
8824;DHT22;4448;50.904;4.694;2022-10-16T14:07:28;20.30;99.90
8824;DHT22;4448;50.904;4.694;2022-10-16T14:09:55;20.20;99.90
8824;DHT22;4448;50.904;4.694;2022-10-16T14:12:22;20.20;99.90
8824;DHT22;4448;50.904;4.694;2022-10-16T14:14:50;20.30;99.90
8824;DHT22;4448;50.904;4.694;2022-10-16T14:17:30;20.40;99.90
8824;DHT22;4448;50.904;4.694;2022-10-16T14:19:59;20.40;99.90
8824;DHT22;4448;50.904;4.694;2022-10-16T14:22:37;20.30;99.90
8824;DHT22;4448;50.904;4.694;2022-10-16T14:25:27;20.30;99.90
8824;DHT22;4448;50.904;4.694;2022-10-16T14:30:36;20.10;99.90
8824;DHT22;4448;50.904;4.694;2022-10-16T14:33:25;20.10;99.90
8824;DHT22;4448;50.904;4.694;2022-10-16T14:38:49;20.10;99.90
8824;DHT22;4448;50.904;4.694;2022-10-16T14:41:21;20.10;99.90
8824;DHT22;4448;50.904;4.694;2022-10-16T14:43:53;20.20;99.90
8824;DHT22;4448;50.904;4.694;2022-10-16T14:46:33;20.20;99.90
8824;DHT22;4448;50.904;4.694;2022-10-16T14:49:20;20.20;99.90
8824;DHT22;4448;50.904;4.694;2022-10-16T14:51:47;20.30;99.90
8824;DHT22;4448;50.904;4.694;2022-10-16T14:54:17;20.40;99.90
8824;DHT22;4448;50.904;4.694;2022-10-16T14:56:55;20.40;99.90
8824;DHT22;4448;50.904;4.694;2022-10-16T14:59:26;20.50;99.90
8824;DHT22;4448;50.904;4.694;2022-10-16T15:01:52;20.50;99.90
8824;DHT22;4448;50.904;4.694;2022-10-16T15:04:18;20.50;99.90
8824;DHT22;4448;50.904;4.694;2022-10-16T15:06:44;20.60;99.90
8824;DHT22;4448;50.904;4.694;2022-10-16T15:09:10;20.50;99.90
8824;DHT22;4448;50.904;4.694;2022-10-16T15:11:36;20.40;99.90
8824;DHT22;4448;50.904;4.694;2022-10-16T15:16:29;20.30;99.90
8824;DHT22;4448;50.904;4.694;2022-10-16T15:18:55;20.20;99.90
8824;DHT22;4448;50.904;4.694;2022-10-16T15:21:27;20.20;99.90
8824;DHT22;4448;50.904;4.694;2022-10-16T15:23:53;20.10;99.90
8824;DHT22;4448;50.904;4.694;2022-10-16T15:26:19;20.00;99.90
8824;DHT22;4448;50.904;4.694;2022-10-16T15:28:44;20.00;99.90
8824;DHT22;4448;50.904;4.694;2022-10-16T15:31:10;19.90;99.90
8824;DHT22;4448;50.904;4.694;2022-10-16T15:33:36;19.90;99.90
8824;DHT22;4448;50.904;4.694;2022-10-16T15:36:02;19.80;99.90
8824;DHT22;4448;50.904;4.694;2022-10-16T15:38:28;19.70;99.90
8824;DHT22;4448;50.904;4.694;2022-10-16T15:40:55;19.70;99.90
8824;DHT22;4448;50.904;4.694;2022-10-16T15:43:21;19.60;99.90
8824;DHT22;4448;50.904;4.694;2022-10-16T15:46:01;19.50;99.90
8824;DHT22;4448;50.904;4.694;2022-10-16T15:48:29;19.50;99.90
8824;DHT22;4448;50.904;4.694;2022-10-16T15:50:55;19.40;99.90
8824;DHT22;4448;50.904;4.694;2022-10-16T15:53:21;19.40;99.90
8824;DHT22;4448;50.904;4.694;2022-10-16T15:55:46;19.40;99.90
8824;DHT22;4448;50.904;4.694;2022-10-16T15:58:12;19.30;99.90
8824;DHT22;4448;50.904;4.694;2022-10-16T16:00:37;19.20;99.90
8824;DHT22;4448;50.904;4.694;2022-10-16T16:03:03;19.20;99.90
8824;DHT22;4448;50.904;4.694;2022-10-16T16:05:29;19.10;99.90
8824;DHT22;4448;50.904;4.694;2022-10-16T16:07:55;19.00;99.90
8824;DHT22;4448;50.904;4.694;2022-10-16T16:10:21;19.00;99.90
8824;DHT22;4448;50.904;4.694;2022-10-16T16:12:47;19.00;99.90
8824;DHT22;4448;50.904;4.694;2022-10-16T16:15:18;19.00;99.90
8824;DHT22;4448;50.904;4.694;2022-10-16T16:17:44;18.90;99.90
8824;DHT22;4448;50.904;4.694;2022-10-16T16:20:10;18.80;99.90
8824;DHT22;4448;50.904;4.694;2022-10-16T16:22:35;18.80;99.90
8824;DHT22;4448;50.904;4.694;2022-10-16T16:25:01;18.80;99.90
8824;DHT22;4448;50.904;4.694;2022-10-16T16:27:27;18.80;99.90
8824;DHT22;4448;50.904;4.694;2022-10-16T16:29:55;18.70;99.90
8824;DHT22;4448;50.904;4.694;2022-10-16T16:32:21;18.70;99.90
8824;DHT22;4448;50.904;4.694;2022-10-16T16:34:47;18.60;99.90
8824;DHT22;4448;50.904;4.694;2022-10-16T16:37:13;18.50;99.90
8824;DHT22;4448;50.904;4.694;2022-10-16T16:39:39;18.40;99.90
8824;DHT22;4448;50.904;4.694;2022-10-16T16:42:04;18.30;99.90
8824;DHT22;4448;50.904;4.694;2022-10-16T16:44:32;18.30;99.90
8824;DHT22;4448;50.904;4.694;2022-10-16T16:46:57;18.30;99.90
8824;DHT22;4448;50.904;4.694;2022-10-16T16:49:24;18.20;99.90
8824;DHT22;4448;50.904;4.694;2022-10-16T16:51:49;18.20;99.90
8824;DHT22;4448;50.904;4.694;2022-10-16T16:54:15;18.20;99.90
8824;DHT22;4448;50.904;4.694;2022-10-16T16:56:41;18.20;99.90
8824;DHT22;4448;50.904;4.694;2022-10-16T16:59:17;18.10;99.90
8824;DHT22;4448;50.904;4.694;2022-10-16T17:01:50;18.00;99.90
8824;DHT22;4448;50.904;4.694;2022-10-16T17:04:16;18.00;99.90
8824;DHT22;4448;50.904;4.694;2022-10-16T17:06:43;17.90;99.90
8824;DHT22;4448;50.904;4.694;2022-10-16T17:09:09;17.90;99.90
8824;DHT22;4448;50.904;4.694;2022-10-16T17:11:41;17.90;99.90
8824;DHT22;4448;50.904;4.694;2022-10-16T17:14:11;17.80;99.90
8824;DHT22;4448;50.904;4.694;2022-10-16T17:16:38;17.80;99.90
8824;DHT22;4448;50.904;4.694;2022-10-16T17:19:06;17.70;99.90
8824;DHT22;4448;50.904;4.694;2022-10-16T17:21:34;17.40;99.90
8824;DHT22;4448;50.904;4.694;2022-10-16T17:24:01;17.30;99.90
8824;DHT22;4448;50.904;4.694;2022-10-16T17:26:29;17.20;99.90
8824;DHT22;4448;50.904;4.694;2022-10-16T17:28:59;17.30;99.90
8824;DHT22;4448;50.904;4.694;2022-10-16T17:31:32;17.30;99.90
8824;DHT22;4448;50.904;4.694;2022-10-16T17:34:03;17.20;99.90
8824;DHT22;4448;50.904;4.694;2022-10-16T17:36:34;17.20;99.90
8824;DHT22;4448;50.904;4.694;2022-10-16T17:39:07;17.20;99.90
8824;DHT22;4448;50.904;4.694;2022-10-16T17:41:36;17.10;99.90
8824;DHT22;4448;50.904;4.694;2022-10-16T17:44:04;17.00;99.90
8824;DHT22;4448;50.904;4.694;2022-10-16T17:46:30;16.80;99.90
8824;DHT22;4448;50.904;4.694;2022-10-16T17:48:56;16.80;99.90
8824;DHT22;4448;50.904;4.694;2022-10-16T17:51:26;16.80;99.90
8824;DHT22;4448;50.904;4.694;2022-10-16T17:53:59;16.80;99.90
8824;DHT22;4448;50.904;4.694;2022-10-16T17:56:26;16.80;99.90
8824;DHT22;4448;50.904;4.694;2022-10-16T17:58:57;16.80;99.90
8824;DHT22;4448;50.904;4.694;2022-10-16T18:01:35;16.70;99.90
8824;DHT22;4448;50.904;4.694;2022-10-16T18:04:09;16.70;99.90
8824;DHT22;4448;50.904;4.694;2022-10-16T18:06:51;16.70;99.90
8824;DHT22;4448;50.904;4.694;2022-10-16T18:09:18;16.60;99.90
8824;DHT22;4448;50.904;4.694;2022-10-16T18:11:47;16.50;99.90
8824;DHT22;4448;50.904;4.694;2022-10-16T18:14:28;16.50;99.90
8824;DHT22;4448;50.904;4.694;2022-10-16T18:16:54;16.40;99.90
8824;DHT22;4448;50.904;4.694;2022-10-16T18:19:22;16.40;99.90
8824;DHT22;4448;50.904;4.694;2022-10-16T18:21:48;16.40;99.90
8824;DHT22;4448;50.904;4.694;2022-10-16T18:24:17;16.40;99.90
8824;DHT22;4448;50.904;4.694;2022-10-16T18:26:48;16.40;99.90
8824;DHT22;4448;50.904;4.694;2022-10-16T18:29:18;16.30;99.90
8824;DHT22;4448;50.904;4.694;2022-10-16T18:31:43;16.30;99.90
8824;DHT22;4448;50.904;4.694;2022-10-16T18:34:10;16.20;99.90